sensor_id;sensor_type;location;lat;lon;timestamp;P1;durP1;ratioP1;P2;durP2;ratioP2
3095;SDS011;1558;42.700;23.360;2023-03-01T00:01:44;5.00;;;4.30;;
3095;SDS011;1558;42.700;23.360;2023-03-01T00:04:14;4.60;;;4.17;;
3095;SDS011;1558;42.700;23.360;2023-03-01T00:06:42;4.80;;;4.30;;
3095;SDS011;1558;42.700;23.360;2023-03-01T00:09:12;4.57;;;4.17;;
3095;SDS011;1558;42.700;23.360;2023-03-01T00:11:40;3.70;;;3.30;;
3095;SDS011;1558;42.700;23.360;2023-03-01T00:14:08;4.00;;;3.70;;
3095;SDS011;1558;42.700;23.360;2023-03-01T00:16:38;4.23;;;3.83;;
3095;SDS011;1558;42.700;23.360;2023-03-01T00:19:07;4.50;;;4.10;;
3095;SDS011;1558;42.700;23.360;2023-03-01T00:21:39;4.13;;;3.83;;
3095;SDS011;1558;42.700;23.360;2023-03-01T00:24:07;3.87;;;3.50;;
3095;SDS011;1558;42.700;23.360;2023-03-01T00:26:37;3.67;;;3.37;;
3095;SDS011;1558;42.700;23.360;2023-03-01T00:29:05;3.60;;;3.30;;
3095;SDS011;1558;42.700;23.360;2023-03-01T00:31:34;4.10;;;3.80;;
3095;SDS011;1558;42.700;23.360;2023-03-01T00:34:03;3.93;;;3.53;;
3095;SDS011;1558;42.700;23.360;2023-03-01T00:36:33;4.50;;;4.10;;
3095;SDS011;1558;42.700;23.360;2023-03-01T00:39:07;3.90;;;3.50;;
3095;SDS011;1558;42.700;23.360;2023-03-01T00:41:38;4.93;;;4.53;;
3095;SDS011;1558;42.700;23.360;2023-03-01T00:44:06;4.60;;;4.20;;
3095;SDS011;1558;42.700;23.360;2023-03-01T00:46:34;4.10;;;3.80;;
3095;SDS011;1558;42.700;23.360;2023-03-01T00:49:02;3.87;;;3.57;;
3095;SDS011;1558;42.700;23.360;2023-03-01T00:51:31;4.23;;;3.87;;
3095;SDS011;1558;42.700;23.360;2023-03-01T00:53:59;3.60;;;3.30;;
3095;SDS011;1558;42.700;23.360;2023-03-01T00:56:30;3.90;;;3.60;;
3095;SDS011;1558;42.700;23.360;2023-03-01T00:58:59;3.60;;;3.30;;
3095;SDS011;1558;42.700;23.360;2023-03-01T01:01:28;3.93;;;3.57;;
3095;SDS011;1558;42.700;23.360;2023-03-01T01:03:58;5.17;;;3.50;;
3095;SDS011;1558;42.700;23.360;2023-03-01T01:06:28;4.90;;;3.87;;
3095;SDS011;1558;42.700;23.360;2023-03-01T01:08:58;4.23;;;3.83;;
3095;SDS011;1558;42.700;23.360;2023-03-01T01:11:27;4.27;;;3.70;;
3095;SDS011;1558;42.700;23.360;2023-03-01T01:13:58;4.50;;;4.10;;
3095;SDS011;1558;42.700;23.360;2023-03-01T01:16:27;6.03;;;4.93;;
3095;SDS011;1558;42.700;23.360;2023-03-01T01:18:56;5.57;;;4.77;;
3095;SDS011;1558;42.700;23.360;2023-03-01T01:21:24;5.00;;;4.57;;
3095;SDS011;1558;42.700;23.360;2023-03-01T01:23:53;5.10;;;4.50;;
3095;SDS011;1558;42.700;23.360;2023-03-01T01:26:22;6.27;;;4.80;;
3095;SDS011;1558;42.700;23.360;2023-03-01T01:28:53;5.63;;;4.70;;
3095;SDS011;1558;42.700;23.360;2023-03-01T01:31:23;4.80;;;4.40;;
3095;SDS011;1558;42.700;23.360;2023-03-01T01:33:52;4.60;;;4.20;;
3095;SDS011;1558;42.700;23.360;2023-03-01T01:36:21;4.47;;;4.07;;
3095;SDS011;1558;42.700;23.360;2023-03-01T01:38:49;4.30;;;4.00;;
3095;SDS011;1558;42.700;23.360;2023-03-01T01:41:18;4.13;;;3.83;;
3095;SDS011;1558;42.700;23.360;2023-03-01T01:43:47;4.47;;;3.50;;
3095;SDS011;1558;42.700;23.360;2023-03-01T01:46:20;4.00;;;3.70;;
3095;SDS011;1558;42.700;23.360;2023-03-01T01:48:56;3.47;;;3.17;;
3095;SDS011;1558;42.700;23.360;2023-03-01T01:51:28;3.70;;;3.40;;
3095;SDS011;1558;42.700;23.360;2023-03-01T01:54:06;3.70;;;3.30;;
3095;SDS011;1558;42.700;23.360;2023-03-01T01:56:37;3.57;;;3.27;;
3095;SDS011;1558;42.700;23.360;2023-03-01T01:59:07;4.30;;;3.90;;
3095;SDS011;1558;42.700;23.360;2023-03-01T02:01:38;4.23;;;3.60;;
3095;SDS011;1558;42.700;23.360;2023-03-01T02:04:06;3.17;;;2.87;;
3095;SDS011;1558;42.700;23.360;2023-03-01T02:06:36;3.20;;;3.00;;
3095;SDS011;1558;42.700;23.360;2023-03-01T02:09:08;3.23;;;2.93;;
3095;SDS011;1558;42.700;23.360;2023-03-01T02:11:40;3.37;;;3.07;;
3095;SDS011;1558;42.700;23.360;2023-03-01T02:14:09;3.67;;;3.37;;
3095;SDS011;1558;42.700;23.360;2023-03-01T02:16:39;3.00;;;2.80;;
3095;SDS011;1558;42.700;23.360;2023-03-01T02:19:09;3.17;;;2.97;;
3095;SDS011;1558;42.700;23.360;2023-03-01T02:21:45;3.50;;;3.30;;
3095;SDS011;1558;42.700;23.360;2023-03-01T02:24:24;2.90;;;2.70;;
3095;SDS011;1558;42.700;23.360;2023-03-01T02:27:00;3.60;;;3.13;;
3095;SDS011;1558;42.700;23.360;2023-03-01T02:29:29;3.43;;;3.13;;
3095;SDS011;1558;42.700;23.360;2023-03-01T02:31:57;4.00;;;3.70;;
3095;SDS011;1558;42.700;23.360;2023-03-01T02:34:30;4.23;;;3.83;;
3095;SDS011;1558;42.700;23.360;2023-03-01T02:37:01;4.93;;;4.13;;
3095;SDS011;1558;42.700;23.360;2023-03-01T02:39:32;4.60;;;4.20;;
3095;SDS011;1558;42.700;23.360;2023-03-01T02:42:03;3.83;;;3.53;;
3095;SDS011;1558;42.700;23.360;2023-03-01T02:44:34;3.90;;;3.60;;
3095;SDS011;1558;42.700;23.360;2023-03-01T02:47:03;3.90;;;3.60;;
3095;SDS011;1558;42.700;23.360;2023-03-01T02:49:32;3.97;;;3.67;;
3095;SDS011;1558;42.700;23.360;2023-03-01T02:52:12;3.37;;;3.07;;
3095;SDS011;1558;42.700;23.360;2023-03-01T02:54:57;3.90;;;3.60;;
3095;SDS011;1558;42.700;23.360;2023-03-01T02:57:28;4.00;;;3.70;;
3095;SDS011;1558;42.700;23.360;2023-03-01T03:00:02;3.87;;;3.13;;
3095;SDS011;1558;42.700;23.360;2023-03-01T03:02:34;3.30;;;3.00;;
3095;SDS011;1558;42.700;23.360;2023-03-01T03:05:07;3.90;;;3.60;;
3095;SDS011;1558;42.700;23.360;2023-03-01T03:07:37;3.80;;;3.50;;
3095;SDS011;1558;42.700;23.360;2023-03-01T03:10:08;3.60;;;3.30;;
3095;SDS011;1558;42.700;23.360;2023-03-01T03:12:38;3.17;;;2.87;;
3095;SDS011;1558;42.700;23.360;2023-03-01T03:15:08;3.53;;;3.23;;
3095;SDS011;1558;42.700;23.360;2023-03-01T03:17:39;4.43;;;4.03;;
3095;SDS011;1558;42.700;23.360;2023-03-01T03:20:12;4.40;;;4.00;;
3095;SDS011;1558;42.700;23.360;2023-03-01T03:22:45;3.50;;;3.20;;
3095;SDS011;1558;42.700;23.360;2023-03-01T03:25:14;4.10;;;3.70;;
3095;SDS011;1558;42.700;23.360;2023-03-01T03:27:43;3.87;;;3.57;;
3095;SDS011;1558;42.700;23.360;2023-03-01T03:30:16;3.97;;;3.67;;
3095;SDS011;1558;42.700;23.360;2023-03-01T03:32:46;3.50;;;3.20;;
3095;SDS011;1558;42.700;23.360;2023-03-01T03:35:18;3.40;;;3.10;;
3095;SDS011;1558;42.700;23.360;2023-03-01T03:37:48;3.60;;;3.30;;
3095;SDS011;1558;42.700;23.360;2023-03-01T03:40:33;4.57;;;4.17;;
3095;SDS011;1558;42.700;23.360;2023-03-01T03:43:03;3.97;;;3.57;;
3095;SDS011;1558;42.700;23.360;2023-03-01T03:48:20;4.87;;;3.77;;
3095;SDS011;1558;42.700;23.360;2023-03-01T03:50:48;3.80;;;3.40;;
3095;SDS011;1558;42.700;23.360;2023-03-01T03:53:18;3.87;;;3.57;;
3095;SDS011;1558;42.700;23.360;2023-03-01T03:55:47;4.10;;;3.63;;
3095;SDS011;1558;42.700;23.360;2023-03-01T04:01:05;3.57;;;3.27;;
3095;SDS011;1558;42.700;23.360;2023-03-01T04:03:33;4.00;;;3.70;;
3095;SDS011;1558;42.700;23.360;2023-03-01T04:06:02;4.30;;;3.90;;
3095;SDS011;1558;42.700;23.360;2023-03-01T04:08:32;3.40;;;3.10;;
3095;SDS011;1558;42.700;23.360;2023-03-01T04:11:01;5.20;;;4.33;;
3095;SDS011;1558;42.700;23.360;2023-03-01T04:13:51;4.20;;;3.80;;
3095;SDS011;1558;42.700;23.360;2023-03-01T04:16:21;4.03;;;3.63;;
3095;SDS011;1558;42.700;23.360;2023-03-01T04:18:50;4.00;;;3.50;;
3095;SDS011;1558;42.700;23.360;2023-03-01T04:21:18;3.70;;;3.40;;
3095;SDS011;1558;42.700;23.360;2023-03-01T04:23:46;4.00;;;3.67;;
3095;SDS011;1558;42.700;23.360;2023-03-01T04:26:14;4.80;;;4.30;;
3095;SDS011;1558;42.700;23.360;2023-03-01T04:28:42;4.27;;;3.80;;
3095;SDS011;1558;42.700;23.360;2023-03-01T04:31:12;3.87;;;3.57;;
3095;SDS011;1558;42.700;23.360;2023-03-01T04:33:46;3.77;;;3.47;;
3095;SDS011;1558;42.700;23.360;2023-03-01T04:36:18;3.53;;;3.23;;
3095;SDS011;1558;42.700;23.360;2023-03-01T04:38:48;3.80;;;3.50;;
3095;SDS011;1558;42.700;23.360;2023-03-01T04:41:16;4.43;;;3.03;;
3095;SDS011;1558;42.700;23.360;2023-03-01T04:43:45;4.60;;;3.37;;
3095;SDS011;1558;42.700;23.360;2023-03-01T04:46:13;4.13;;;3.73;;
3095;SDS011;1558;42.700;23.360;2023-03-01T04:48:44;5.03;;;3.90;;
3095;SDS011;1558;42.700;23.360;2023-03-01T04:51:14;4.50;;;3.87;;
3095;SDS011;1558;42.700;23.360;2023-03-01T04:53:43;4.77;;;4.30;;
3095;SDS011;1558;42.700;23.360;2023-03-01T04:56:11;5.70;;;5.20;;
3095;SDS011;1558;42.700;23.360;2023-03-01T04:58:41;5.40;;;4.90;;
3095;SDS011;1558;42.700;23.360;2023-03-01T05:01:09;6.43;;;5.47;;
3095;SDS011;1558;42.700;23.360;2023-03-01T05:03:42;5.80;;;5.10;;
3095;SDS011;1558;42.700;23.360;2023-03-01T05:06:12;6.50;;;5.27;;
3095;SDS011;1558;42.700;23.360;2023-03-01T05:08:40;5.47;;;4.47;;
3095;SDS011;1558;42.700;23.360;2023-03-01T05:11:09;7.67;;;4.47;;
3095;SDS011;1558;42.700;23.360;2023-03-01T05:13:38;5.07;;;4.37;;
3095;SDS011;1558;42.700;23.360;2023-03-01T05:16:07;5.37;;;4.87;;
3095;SDS011;1558;42.700;23.360;2023-03-01T05:18:38;4.87;;;4.40;;
3095;SDS011;1558;42.700;23.360;2023-03-01T05:21:07;5.53;;;5.03;;
3095;SDS011;1558;42.700;23.360;2023-03-01T05:23:37;4.93;;;4.53;;
3095;SDS011;1558;42.700;23.360;2023-03-01T05:26:05;4.73;;;4.30;;
3095;SDS011;1558;42.700;23.360;2023-03-01T05:28:47;5.13;;;4.63;;
3095;SDS011;1558;42.700;23.360;2023-03-01T05:31:16;7.00;;;4.33;;
3095;SDS011;1558;42.700;23.360;2023-03-01T05:33:44;5.00;;;4.40;;
3095;SDS011;1558;42.700;23.360;2023-03-01T05:36:12;6.17;;;4.67;;
3095;SDS011;1558;42.700;23.360;2023-03-01T05:38:41;6.23;;;3.87;;
3095;SDS011;1558;42.700;23.360;2023-03-01T05:41:15;4.77;;;4.20;;
3095;SDS011;1558;42.700;23.360;2023-03-01T05:43:53;5.03;;;4.30;;
3095;SDS011;1558;42.700;23.360;2023-03-01T05:46:25;4.47;;;4.07;;
3095;SDS011;1558;42.700;23.360;2023-03-01T05:48:53;4.60;;;4.20;;
3095;SDS011;1558;42.700;23.360;2023-03-01T05:51:23;5.30;;;4.80;;
3095;SDS011;1558;42.700;23.360;2023-03-01T05:53:58;6.50;;;5.20;;
3095;SDS011;1558;42.700;23.360;2023-03-01T05:56:26;6.63;;;5.13;;
3095;SDS011;1558;42.700;23.360;2023-03-01T05:58:56;5.33;;;4.70;;
3095;SDS011;1558;42.700;23.360;2023-03-01T06:01:24;6.43;;;4.60;;
3095;SDS011;1558;42.700;23.360;2023-03-01T06:03:52;5.23;;;4.47;;
3095;SDS011;1558;42.700;23.360;2023-03-01T06:06:20;5.10;;;4.60;;
3095;SDS011;1558;42.700;23.360;2023-03-01T06:08:47;4.90;;;4.40;;
3095;SDS011;1558;42.700;23.360;2023-03-01T06:11:17;4.53;;;3.57;;
3095;SDS011;1558;42.700;23.360;2023-03-01T06:13:45;5.93;;;4.67;;
3095;SDS011;1558;42.700;23.360;2023-03-01T06:16:13;4.60;;;4.20;;
3095;SDS011;1558;42.700;23.360;2023-03-01T06:18:42;11.90;;;7.10;;
3095;SDS011;1558;42.700;23.360;2023-03-01T06:21:10;4.60;;;4.07;;
3095;SDS011;1558;42.700;23.360;2023-03-01T06:23:38;4.30;;;3.90;;
3095;SDS011;1558;42.700;23.360;2023-03-01T06:26:06;4.50;;;4.10;;
3095;SDS011;1558;42.700;23.360;2023-03-01T06:28:36;5.80;;;3.93;;
3095;SDS011;1558;42.700;23.360;2023-03-01T06:31:04;3.73;;;3.27;;
3095;SDS011;1558;42.700;23.360;2023-03-01T06:33:35;6.57;;;3.93;;
3095;SDS011;1558;42.700;23.360;2023-03-01T06:36:03;3.40;;;3.10;;
3095;SDS011;1558;42.700;23.360;2023-03-01T06:38:34;4.83;;;3.60;;
3095;SDS011;1558;42.700;23.360;2023-03-01T06:41:02;4.17;;;3.63;;
3095;SDS011;1558;42.700;23.360;2023-03-01T06:43:30;4.27;;;3.87;;
3095;SDS011;1558;42.700;23.360;2023-03-01T06:46:00;9.13;;;5.27;;
3095;SDS011;1558;42.700;23.360;2023-03-01T06:48:31;6.03;;;5.17;;
3095;SDS011;1558;42.700;23.360;2023-03-01T06:50:59;5.50;;;5.00;;
3095;SDS011;1558;42.700;23.360;2023-03-01T06:53:27;6.13;;;4.53;;
3095;SDS011;1558;42.700;23.360;2023-03-01T06:55:56;4.17;;;3.73;;
3095;SDS011;1558;42.700;23.360;2023-03-01T06:58:26;5.00;;;4.50;;
3095;SDS011;1558;42.700;23.360;2023-03-01T07:00:55;4.93;;;4.47;;
3095;SDS011;1558;42.700;23.360;2023-03-01T07:03:25;5.77;;;4.93;;
3095;SDS011;1558;42.700;23.360;2023-03-01T07:05:52;5.07;;;4.57;;
3095;SDS011;1558;42.700;23.360;2023-03-01T07:08:20;5.13;;;4.63;;
3095;SDS011;1558;42.700;23.360;2023-03-01T07:10:48;6.33;;;5.03;;
3095;SDS011;1558;42.700;23.360;2023-03-01T07:13:22;6.03;;;5.43;;
3095;SDS011;1558;42.700;23.360;2023-03-01T07:15:50;5.40;;;4.83;;
3095;SDS011;1558;42.700;23.360;2023-03-01T07:18:18;7.83;;;4.57;;
3095;SDS011;1558;42.700;23.360;2023-03-01T07:20:48;6.70;;;4.40;;
3095;SDS011;1558;42.700;23.360;2023-03-01T07:23:15;7.57;;;5.00;;
3095;SDS011;1558;42.700;23.360;2023-03-01T07:25:43;5.03;;;4.53;;
3095;SDS011;1558;42.700;23.360;2023-03-01T07:28:11;3.90;;;3.60;;
3095;SDS011;1558;42.700;23.360;2023-03-01T07:30:39;5.40;;;4.70;;
3095;SDS011;1558;42.700;23.360;2023-03-01T07:33:07;4.97;;;4.57;;
3095;SDS011;1558;42.700;23.360;2023-03-01T07:35:36;5.57;;;3.97;;
3095;SDS011;1558;42.700;23.360;2023-03-01T07:38:06;5.40;;;4.37;;
3095;SDS011;1558;42.700;23.360;2023-03-01T07:40:34;6.50;;;4.10;;
3095;SDS011;1558;42.700;23.360;2023-03-01T07:43:02;6.53;;;3.87;;
3095;SDS011;1558;42.700;23.360;2023-03-01T07:45:30;3.83;;;3.50;;
3095;SDS011;1558;42.700;23.360;2023-03-01T07:47:58;4.43;;;3.40;;
3095;SDS011;1558;42.700;23.360;2023-03-01T07:50:26;5.97;;;3.77;;
3095;SDS011;1558;42.700;23.360;2023-03-01T07:52:54;5.07;;;3.73;;
3095;SDS011;1558;42.700;23.360;2023-03-01T07:55:23;3.80;;;3.40;;
3095;SDS011;1558;42.700;23.360;2023-03-01T07:57:51;3.83;;;3.20;;
3095;SDS011;1558;42.700;23.360;2023-03-01T08:00:20;5.03;;;4.03;;
3095;SDS011;1558;42.700;23.360;2023-03-01T08:02:48;7.13;;;3.90;;
3095;SDS011;1558;42.700;23.360;2023-03-01T08:05:16;4.40;;;3.20;;
3095;SDS011;1558;42.700;23.360;2023-03-01T08:07:44;3.30;;;3.00;;
3095;SDS011;1558;42.700;23.360;2023-03-01T08:10:12;2.87;;;2.67;;
3095;SDS011;1558;42.700;23.360;2023-03-01T08:12:41;3.20;;;2.90;;
3095;SDS011;1558;42.700;23.360;2023-03-01T08:15:10;3.27;;;2.73;;
3095;SDS011;1558;42.700;23.360;2023-03-01T08:17:38;3.70;;;2.53;;
3095;SDS011;1558;42.700;23.360;2023-03-01T08:20:08;5.27;;;2.87;;
3095;SDS011;1558;42.700;23.360;2023-03-01T08:22:39;3.20;;;2.80;;
3095;SDS011;1558;42.700;23.360;2023-03-01T08:25:08;3.40;;;2.83;;
3095;SDS011;1558;42.700;23.360;2023-03-01T08:27:42;5.27;;;3.60;;
3095;SDS011;1558;42.700;23.360;2023-03-01T08:30:11;4.77;;;3.30;;
3095;SDS011;1558;42.700;23.360;2023-03-01T08:32:40;4.33;;;3.63;;
3095;SDS011;1558;42.700;23.360;2023-03-01T08:35:08;3.90;;;3.00;;
3095;SDS011;1558;42.700;23.360;2023-03-01T08:37:36;3.80;;;3.37;;
3095;SDS011;1558;42.700;23.360;2023-03-01T08:40:06;3.77;;;3.40;;
3095;SDS011;1558;42.700;23.360;2023-03-01T08:42:37;4.80;;;4.30;;
3095;SDS011;1558;42.700;23.360;2023-03-01T08:45:10;4.50;;;4.10;;
3095;SDS011;1558;42.700;23.360;2023-03-01T08:47:44;4.47;;;3.67;;
3095;SDS011;1558;42.700;23.360;2023-03-01T08:50:16;4.33;;;3.53;;
3095;SDS011;1558;42.700;23.360;2023-03-01T08:52:45;5.90;;;4.67;;
3095;SDS011;1558;42.700;23.360;2023-03-01T08:55:16;4.50;;;4.10;;
3095;SDS011;1558;42.700;23.360;2023-03-01T08:57:44;4.20;;;3.80;;
3095;SDS011;1558;42.700;23.360;2023-03-01T09:00:18;3.90;;;3.60;;
3095;SDS011;1558;42.700;23.360;2023-03-01T09:02:52;5.50;;;3.77;;
3095;SDS011;1558;42.700;23.360;2023-03-01T09:05:21;3.80;;;2.60;;
3095;SDS011;1558;42.700;23.360;2023-03-01T09:07:48;5.40;;;3.53;;
3095;SDS011;1558;42.700;23.360;2023-03-01T09:10:17;3.70;;;3.40;;
3095;SDS011;1558;42.700;23.360;2023-03-01T09:12:47;3.97;;;3.30;;
3095;SDS011;1558;42.700;23.360;2023-03-01T09:15:17;4.37;;;3.67;;
3095;SDS011;1558;42.700;23.360;2023-03-01T09:17:46;3.43;;;3.13;;
3095;SDS011;1558;42.700;23.360;2023-03-01T09:20:14;3.17;;;2.87;;
3095;SDS011;1558;42.700;23.360;2023-03-01T09:22:44;4.93;;;3.80;;
3095;SDS011;1558;42.700;23.360;2023-03-01T09:25:13;4.00;;;3.57;;
3095;SDS011;1558;42.700;23.360;2023-03-01T09:27:41;4.90;;;3.03;;
3095;SDS011;1558;42.700;23.360;2023-03-01T09:30:10;3.73;;;3.43;;
3095;SDS011;1558;42.700;23.360;2023-03-01T09:32:44;3.33;;;3.03;;
3095;SDS011;1558;42.700;23.360;2023-03-01T09:35:13;3.83;;;3.43;;
3095;SDS011;1558;42.700;23.360;2023-03-01T09:37:41;3.47;;;3.17;;
3095;SDS011;1558;42.700;23.360;2023-03-01T09:40:12;3.73;;;3.33;;
3095;SDS011;1558;42.700;23.360;2023-03-01T09:42:46;2.97;;;2.73;;
3095;SDS011;1558;42.700;23.360;2023-03-01T09:45:23;2.87;;;2.67;;
3095;SDS011;1558;42.700;23.360;2023-03-01T09:47:56;2.87;;;2.67;;
3095;SDS011;1558;42.700;23.360;2023-03-01T09:50:28;3.10;;;2.90;;
3095;SDS011;1558;42.700;23.360;2023-03-01T09:53:04;2.43;;;2.23;;
3095;SDS011;1558;42.700;23.360;2023-03-01T09:55:37;3.27;;;2.40;;
3095;SDS011;1558;42.700;23.360;2023-03-01T09:58:17;4.80;;;2.70;;
3095;SDS011;1558;42.700;23.360;2023-03-01T10:00:57;2.87;;;2.67;;
3095;SDS011;1558;42.700;23.360;2023-03-01T10:03:33;2.50;;;2.30;;
3095;SDS011;1558;42.700;23.360;2023-03-01T10:06:08;2.70;;;2.30;;
3095;SDS011;1558;42.700;23.360;2023-03-01T10:08:58;2.53;;;2.33;;
3095;SDS011;1558;42.700;23.360;2023-03-01T10:11:32;3.03;;;2.60;;
3095;SDS011;1558;42.700;23.360;2023-03-01T10:14:06;2.97;;;2.33;;
3095;SDS011;1558;42.700;23.360;2023-03-01T10:16:50;2.57;;;2.30;;
3095;SDS011;1558;42.700;23.360;2023-03-01T10:19:27;4.07;;;2.70;;
3095;SDS011;1558;42.700;23.360;2023-03-01T10:22:04;2.07;;;1.80;;
3095;SDS011;1558;42.700;23.360;2023-03-01T10:24:42;1.80;;;1.70;;
3095;SDS011;1558;42.700;23.360;2023-03-01T10:27:14;2.50;;;2.20;;
3095;SDS011;1558;42.700;23.360;2023-03-01T10:29:49;3.87;;;2.57;;
3095;SDS011;1558;42.700;23.360;2023-03-01T10:32:29;2.40;;;2.20;;
3095;SDS011;1558;42.700;23.360;2023-03-01T10:34:59;4.80;;;2.80;;
3095;SDS011;1558;42.700;23.360;2023-03-01T10:37:27;2.30;;;2.10;;
3095;SDS011;1558;42.700;23.360;2023-03-01T10:39:57;2.00;;;1.77;;
3095;SDS011;1558;42.700;23.360;2023-03-01T10:42:27;2.57;;;1.93;;
3095;SDS011;1558;42.700;23.360;2023-03-01T10:44:57;2.50;;;2.30;;
3095;SDS011;1558;42.700;23.360;2023-03-01T10:47:26;2.17;;;1.97;;
3095;SDS011;1558;42.700;23.360;2023-03-01T10:50:00;2.90;;;2.50;;
3095;SDS011;1558;42.700;23.360;2023-03-01T10:52:30;2.80;;;2.20;;
3095;SDS011;1558;42.700;23.360;2023-03-01T10:55:01;1.87;;;1.50;;
3095;SDS011;1558;42.700;23.360;2023-03-01T10:57:49;3.57;;;2.50;;
3095;SDS011;1558;42.700;23.360;2023-03-01T11:00:23;2.23;;;2.00;;
3095;SDS011;1558;42.700;23.360;2023-03-01T11:03:02;4.87;;;3.20;;
3095;SDS011;1558;42.700;23.360;2023-03-01T11:05:50;2.10;;;1.40;;
3095;SDS011;1558;42.700;23.360;2023-03-01T11:08:30;3.53;;;2.30;;
3095;SDS011;1558;42.700;23.360;2023-03-01T11:11:20;2.53;;;2.33;;
3095;SDS011;1558;42.700;23.360;2023-03-01T11:13:58;4.27;;;2.93;;
3095;SDS011;1558;42.700;23.360;2023-03-01T11:16:41;7.20;;;2.80;;
3095;SDS011;1558;42.700;23.360;2023-03-01T11:19:16;3.83;;;3.07;;
3095;SDS011;1558;42.700;23.360;2023-03-01T11:21:57;2.17;;;1.97;;
3095;SDS011;1558;42.700;23.360;2023-03-01T11:24:30;3.80;;;1.93;;
3095;SDS011;1558;42.700;23.360;2023-03-01T11:27:09;2.63;;;2.30;;
3095;SDS011;1558;42.700;23.360;2023-03-01T11:29:44;2.93;;;2.57;;
3095;SDS011;1558;42.700;23.360;2023-03-01T11:32:20;2.23;;;2.03;;
3095;SDS011;1558;42.700;23.360;2023-03-01T11:34:55;3.53;;;2.57;;
3095;SDS011;1558;42.700;23.360;2023-03-01T11:37:32;2.03;;;1.90;;
3095;SDS011;1558;42.700;23.360;2023-03-01T11:40:07;3.10;;;1.87;;
3095;SDS011;1558;42.700;23.360;2023-03-01T11:42:47;3.53;;;2.10;;
3095;SDS011;1558;42.700;23.360;2023-03-01T11:45:24;3.13;;;2.23;;
3095;SDS011;1558;42.700;23.360;2023-03-01T11:48:11;5.30;;;2.80;;
3095;SDS011;1558;42.700;23.360;2023-03-01T11:51:15;3.30;;;2.77;;
3095;SDS011;1558;42.700;23.360;2023-03-01T11:53:58;2.00;;;1.70;;
3095;SDS011;1558;42.700;23.360;2023-03-01T11:56:35;3.10;;;2.20;;
3095;SDS011;1558;42.700;23.360;2023-03-01T12:05:07;2.80;;;2.47;;
3095;SDS011;1558;42.700;23.360;2023-03-01T12:07:50;4.00;;;2.50;;
3095;SDS011;1558;42.700;23.360;2023-03-01T12:10:25;3.17;;;2.83;;
3095;SDS011;1558;42.700;23.360;2023-03-01T12:15:51;3.50;;;2.97;;
3095;SDS011;1558;42.700;23.360;2023-03-01T12:21:58;3.50;;;3.20;;
3095;SDS011;1558;42.700;23.360;2023-03-01T12:24:48;3.37;;;3.07;;
3095;SDS011;1558;42.700;23.360;2023-03-01T12:27:36;3.93;;;2.63;;
3095;SDS011;1558;42.700;23.360;2023-03-01T12:30:21;7.57;;;2.70;;
3095;SDS011;1558;42.700;23.360;2023-03-01T12:33:06;3.50;;;2.90;;
3095;SDS011;1558;42.700;23.360;2023-03-01T12:38:40;5.17;;;3.13;;
3095;SDS011;1558;42.700;23.360;2023-03-01T12:41:20;2.97;;;2.40;;
3095;SDS011;1558;42.700;23.360;2023-03-01T12:44:27;3.03;;;2.73;;
3095;SDS011;1558;42.700;23.360;2023-03-01T12:47:26;3.97;;;3.27;;
3095;SDS011;1558;42.700;23.360;2023-03-01T12:50:12;4.90;;;3.27;;
3095;SDS011;1558;42.700;23.360;2023-03-01T12:52:47;4.10;;;2.90;;
3095;SDS011;1558;42.700;23.360;2023-03-01T12:55:26;4.53;;;2.90;;
3095;SDS011;1558;42.700;23.360;2023-03-01T12:58:00;3.40;;;3.10;;
3095;SDS011;1558;42.700;23.360;2023-03-01T13:00:39;4.13;;;3.27;;
3095;SDS011;1558;42.700;23.360;2023-03-01T13:03:17;4.90;;;3.40;;
3095;SDS011;1558;42.700;23.360;2023-03-01T13:05:56;4.90;;;3.53;;
3095;SDS011;1558;42.700;23.360;2023-03-01T13:08:36;5.10;;;4.43;;
3095;SDS011;1558;42.700;23.360;2023-03-01T13:11:11;4.40;;;3.30;;
3095;SDS011;1558;42.700;23.360;2023-03-01T13:13:45;5.17;;;3.13;;
3095;SDS011;1558;42.700;23.360;2023-03-01T13:16:38;7.43;;;4.07;;
3095;SDS011;1558;42.700;23.360;2023-03-01T13:19:10;4.70;;;4.10;;
3095;SDS011;1558;42.700;23.360;2023-03-01T13:21:42;7.10;;;4.27;;
3095;SDS011;1558;42.700;23.360;2023-03-01T13:24:24;8.23;;;4.50;;
3095;SDS011;1558;42.700;23.360;2023-03-01T13:27:10;7.60;;;5.00;;
3095;SDS011;1558;42.700;23.360;2023-03-01T13:29:55;5.37;;;4.40;;
3095;SDS011;1558;42.700;23.360;2023-03-01T13:32:29;4.60;;;4.20;;
3095;SDS011;1558;42.700;23.360;2023-03-01T13:41:12;6.03;;;3.47;;
3095;SDS011;1558;42.700;23.360;2023-03-01T13:43:42;3.57;;;2.97;;
3095;SDS011;1558;42.700;23.360;2023-03-01T13:46:16;5.57;;;4.07;;
3095;SDS011;1558;42.700;23.360;2023-03-01T13:48:49;4.03;;;3.40;;
3095;SDS011;1558;42.700;23.360;2023-03-01T13:51:21;5.33;;;3.80;;
3095;SDS011;1558;42.700;23.360;2023-03-01T13:53:52;4.67;;;4.17;;
3095;SDS011;1558;42.700;23.360;2023-03-01T13:56:24;9.30;;;4.50;;
3095;SDS011;1558;42.700;23.360;2023-03-01T13:58:58;4.90;;;4.23;;
3095;SDS011;1558;42.700;23.360;2023-03-01T14:01:29;3.73;;;3.33;;
3095;SDS011;1558;42.700;23.360;2023-03-01T14:04:01;4.70;;;4.20;;
3095;SDS011;1558;42.700;23.360;2023-03-01T14:06:32;5.03;;;3.80;;
3095;SDS011;1558;42.700;23.360;2023-03-01T14:09:03;5.13;;;4.63;;
3095;SDS011;1558;42.700;23.360;2023-03-01T14:11:49;5.43;;;4.93;;
3095;SDS011;1558;42.700;23.360;2023-03-01T14:14:51;4.53;;;4.13;;
3095;SDS011;1558;42.700;23.360;2023-03-01T14:20:20;6.37;;;5.10;;
3095;SDS011;1558;42.700;23.360;2023-03-01T14:22:52;8.70;;;6.70;;
3095;SDS011;1558;42.700;23.360;2023-03-01T14:25:23;7.60;;;6.07;;
3095;SDS011;1558;42.700;23.360;2023-03-01T14:27:57;7.23;;;5.67;;
3095;SDS011;1558;42.700;23.360;2023-03-01T14:30:32;6.03;;;4.77;;
3095;SDS011;1558;42.700;23.360;2023-03-01T14:33:03;7.47;;;4.00;;
3095;SDS011;1558;42.700;23.360;2023-03-01T14:35:35;4.07;;;3.67;;
3095;SDS011;1558;42.700;23.360;2023-03-01T14:38:03;5.90;;;4.03;;
3095;SDS011;1558;42.700;23.360;2023-03-01T14:40:33;5.93;;;3.90;;
3095;SDS011;1558;42.700;23.360;2023-03-01T14:43:07;5.70;;;5.10;;
3095;SDS011;1558;42.700;23.360;2023-03-01T14:45:38;6.77;;;4.57;;
3095;SDS011;1558;42.700;23.360;2023-03-01T14:48:06;6.20;;;5.20;;
3095;SDS011;1558;42.700;23.360;2023-03-01T14:50:40;5.20;;;4.70;;
3095;SDS011;1558;42.700;23.360;2023-03-01T14:53:14;5.27;;;4.73;;
3095;SDS011;1558;42.700;23.360;2023-03-01T14:55:45;5.40;;;4.80;;
3095;SDS011;1558;42.700;23.360;2023-03-01T14:58:16;7.97;;;4.97;;
3095;SDS011;1558;42.700;23.360;2023-03-01T15:00:48;5.47;;;4.43;;
3095;SDS011;1558;42.700;23.360;2023-03-01T15:03:20;7.40;;;4.90;;
3095;SDS011;1558;42.700;23.360;2023-03-01T15:05:58;4.23;;;3.83;;
3095;SDS011;1558;42.700;23.360;2023-03-01T15:08:27;6.63;;;4.70;;
3095;SDS011;1558;42.700;23.360;2023-03-01T15:11:00;3.87;;;3.53;;
3095;SDS011;1558;42.700;23.360;2023-03-01T15:13:30;6.70;;;4.87;;
3095;SDS011;1558;42.700;23.360;2023-03-01T15:16:01;8.10;;;5.17;;
3095;SDS011;1558;42.700;23.360;2023-03-01T15:18:31;7.47;;;5.53;;
3095;SDS011;1558;42.700;23.360;2023-03-01T15:21:15;7.27;;;5.40;;
3095;SDS011;1558;42.700;23.360;2023-03-01T15:23:48;7.13;;;5.67;;
3095;SDS011;1558;42.700;23.360;2023-03-01T15:26:22;6.47;;;4.87;;
3095;SDS011;1558;42.700;23.360;2023-03-01T15:28:54;5.77;;;5.10;;
3095;SDS011;1558;42.700;23.360;2023-03-01T15:31:26;6.60;;;5.17;;
3095;SDS011;1558;42.700;23.360;2023-03-01T15:34:09;7.07;;;5.50;;
3095;SDS011;1558;42.700;23.360;2023-03-01T15:36:52;4.97;;;4.50;;
3095;SDS011;1558;42.700;23.360;2023-03-01T15:39:35;7.23;;;4.77;;
3095;SDS011;1558;42.700;23.360;2023-03-01T15:42:08;7.20;;;4.80;;
3095;SDS011;1558;42.700;23.360;2023-03-01T15:44:41;5.63;;;4.93;;
3095;SDS011;1558;42.700;23.360;2023-03-01T15:47:25;4.87;;;4.30;;
3095;SDS011;1558;42.700;23.360;2023-03-01T15:49:55;7.63;;;5.80;;
3095;SDS011;1558;42.700;23.360;2023-03-01T15:52:27;9.13;;;7.67;;
3095;SDS011;1558;42.700;23.360;2023-03-01T15:54:59;9.57;;;7.47;;
3095;SDS011;1558;42.700;23.360;2023-03-01T15:57:28;9.50;;;6.97;;
3095;SDS011;1558;42.700;23.360;2023-03-01T15:59:56;8.90;;;6.90;;
3095;SDS011;1558;42.700;23.360;2023-03-01T16:02:24;10.53;;;6.63;;